sensor_id;sensor_type;location;lat;lon;timestamp;pressure;altitude;pressure_sealevel;temperature;humidity
56070;BME280;41944;52.078;-0.058;2023-04-26T00:01:20;101745.13;;;5.54;84.19
56070;BME280;41944;52.078;-0.058;2023-04-26T00:03:47;101748.59;;;5.32;84.91
56070;BME280;41944;52.078;-0.058;2023-04-26T00:06:14;101746.48;;;5.12;86.79
56070;BME280;41944;52.078;-0.058;2023-04-26T00:08:41;101741.21;;;5.40;85.96
56070;BME280;41944;52.078;-0.058;2023-04-26T00:11:08;101742.38;;;5.37;85.81
56070;BME280;41944;52.078;-0.058;2023-04-26T00:13:35;101741.11;;;5.27;86.51
56070;BME280;41944;52.078;-0.058;2023-04-26T00:16:02;101734.97;;;5.35;87.37
56070;BME280;41944;52.078;-0.058;2023-04-26T00:18:29;101731.52;;;5.50;87.24
56070;BME280;41944;52.078;-0.058;2023-04-26T00:20:56;101729.12;;;5.43;87.38
56070;BME280;41944;52.078;-0.058;2023-04-26T00:23:23;101721.97;;;5.50;87.63
56070;BME280;41944;52.078;-0.058;2023-04-26T00:25:50;101718.32;;;5.68;87.29
56070;BME280;41944;52.078;-0.058;2023-04-26T00:28:17;101712.47;;;6.04;85.76
56070;BME280;41944;52.078;-0.058;2023-04-26T00:30:44;101712.99;;;6.37;84.30
56070;BME280;41944;52.078;-0.058;2023-04-26T00:33:11;101709.26;;;6.61;82.97
56070;BME280;41944;52.078;-0.058;2023-04-26T00:35:38;101710.54;;;6.57;82.41
56070;BME280;41944;52.078;-0.058;2023-04-26T00:38:05;101708.47;;;6.84;81.09
56070;BME280;41944;52.078;-0.058;2023-04-26T00:40:32;101709.57;;;6.92;80.06
56070;BME280;41944;52.078;-0.058;2023-04-26T00:42:59;101706.30;;;7.01;79.43
56070;BME280;41944;52.078;-0.058;2023-04-26T00:45:26;101702.70;;;6.95;79.26
56070;BME280;41944;52.078;-0.058;2023-04-26T00:47:53;101699.79;;;6.98;79.46
56070;BME280;41944;52.078;-0.058;2023-04-26T00:50:20;101693.20;;;6.96;79.28
56070;BME280;41944;52.078;-0.058;2023-04-26T00:52:48;101695.38;;;7.12;78.67
56070;BME280;41944;52.078;-0.058;2023-04-26T00:55:16;101697.20;;;7.01;78.52
56070;BME280;41944;52.078;-0.058;2023-04-26T00:57:44;101694.13;;;6.91;78.83
56070;BME280;41944;52.078;-0.058;2023-04-26T01:00:12;101692.57;;;6.97;78.77
56070;BME280;41944;52.078;-0.058;2023-04-26T01:02:40;101683.35;;;6.72;79.27
56070;BME280;41944;52.078;-0.058;2023-04-26T01:05:07;101679.37;;;6.74;79.40
56070;BME280;41944;52.078;-0.058;2023-04-26T01:07:35;101674.14;;;6.56;79.75
56070;BME280;41944;52.078;-0.058;2023-04-26T01:10:03;101674.46;;;6.37;80.64
56070;BME280;41944;52.078;-0.058;2023-04-26T01:12:30;101676.00;;;6.29;80.94
56070;BME280;41944;52.078;-0.058;2023-04-26T01:14:59;101675.52;;;6.24;81.43
56070;BME280;41944;52.078;-0.058;2023-04-26T01:17:26;101675.80;;;6.44;80.45
56070;BME280;41944;52.078;-0.058;2023-04-26T01:19:53;101679.73;;;6.42;80.20
56070;BME280;41944;52.078;-0.058;2023-04-26T01:22:20;101678.77;;;6.06;81.34
56070;BME280;41944;52.078;-0.058;2023-04-26T01:24:49;101678.95;;;5.71;83.72
56070;BME280;41944;52.078;-0.058;2023-04-26T01:27:17;101672.99;;;5.41;85.44
56070;BME280;41944;52.078;-0.058;2023-04-26T01:29:44;101668.98;;;5.37;85.99
56070;BME280;41944;52.078;-0.058;2023-04-26T01:32:11;101664.66;;;5.29;86.25
56070;BME280;41944;52.078;-0.058;2023-04-26T01:34:37;101665.26;;;5.39;85.36
56070;BME280;41944;52.078;-0.058;2023-04-26T01:37:04;101669.84;;;5.15;86.54
56070;BME280;41944;52.078;-0.058;2023-04-26T01:39:31;101665.44;;;5.01;87.44
56070;BME280;41944;52.078;-0.058;2023-04-26T01:41:58;101666.02;;;4.98;88.10
56070;BME280;41944;52.078;-0.058;2023-04-26T01:44:25;101662.66;;;4.95;88.40
56070;BME280;41944;52.078;-0.058;2023-04-26T01:46:52;101660.87;;;4.95;88.52
56070;BME280;41944;52.078;-0.058;2023-04-26T01:49:19;101656.99;;;4.87;88.79
56070;BME280;41944;52.078;-0.058;2023-04-26T01:51:46;101655.71;;;4.91;88.67
56070;BME280;41944;52.078;-0.058;2023-04-26T01:54:13;101655.17;;;5.00;87.78
56070;BME280;41944;52.078;-0.058;2023-04-26T01:56:40;101652.77;;;4.98;87.21
56070;BME280;41944;52.078;-0.058;2023-04-26T01:59:07;101648.22;;;4.99;87.32
56070;BME280;41944;52.078;-0.058;2023-04-26T02:01:34;101645.82;;;4.88;88.05
56070;BME280;41944;52.078;-0.058;2023-04-26T02:04:01;101645.73;;;4.90;88.09
56070;BME280;41944;52.078;-0.058;2023-04-26T02:06:29;101648.52;;;4.94;87.96
56070;BME280;41944;52.078;-0.058;2023-04-26T02:08:56;101645.83;;;5.07;87.21
56070;BME280;41944;52.078;-0.058;2023-04-26T02:11:23;101644.47;;;5.05;86.90
56070;BME280;41944;52.078;-0.058;2023-04-26T02:13:50;101639.91;;;5.17;86.39
56070;BME280;41944;52.078;-0.058;2023-04-26T02:16:17;101640.21;;;5.04;86.68
56070;BME280;41944;52.078;-0.058;2023-04-26T02:18:44;101641.37;;;5.00;86.81
56070;BME280;41944;52.078;-0.058;2023-04-26T02:21:11;101637.79;;;5.05;87.20
56070;BME280;41944;52.078;-0.058;2023-04-26T02:23:38;101644.74;;;4.97;88.01
56070;BME280;41944;52.078;-0.058;2023-04-26T02:26:05;101651.67;;;4.90;88.66
56070;BME280;41944;52.078;-0.058;2023-04-26T02:28:32;101652.52;;;4.94;89.11
56070;BME280;41944;52.078;-0.058;2023-04-26T02:31:01;101646.81;;;5.14;87.60
56070;BME280;41944;52.078;-0.058;2023-04-26T02:33:28;101643.44;;;5.11;86.99
56070;BME280;41944;52.078;-0.058;2023-04-26T02:35:55;101640.45;;;5.10;86.93
56070;BME280;41944;52.078;-0.058;2023-04-26T02:38:22;101639.74;;;5.00;87.49
56070;BME280;41944;52.078;-0.058;2023-04-26T02:40:49;101639.37;;;4.98;87.88
56070;BME280;41944;52.078;-0.058;2023-04-26T02:43:23;101635.45;;;5.05;87.31
56070;BME280;41944;52.078;-0.058;2023-04-26T02:45:50;101630.50;;;5.04;86.97
56070;BME280;41944;52.078;-0.058;2023-04-26T02:48:17;101629.10;;;5.04;87.18
56070;BME280;41944;52.078;-0.058;2023-04-26T02:50:45;101630.84;;;5.04;87.31
56070;BME280;41944;52.078;-0.058;2023-04-26T02:53:13;101629.81;;;5.02;87.34
56070;BME280;41944;52.078;-0.058;2023-04-26T02:55:40;101629.09;;;4.88;88.00
56070;BME280;41944;52.078;-0.058;2023-04-26T02:58:07;101628.48;;;5.10;87.38
56070;BME280;41944;52.078;-0.058;2023-04-26T03:00:34;101637.67;;;4.77;88.73
56070;BME280;41944;52.078;-0.058;2023-04-26T03:03:01;101632.77;;;5.05;88.25
56070;BME280;41944;52.078;-0.058;2023-04-26T03:05:28;101637.10;;;4.92;88.09
56070;BME280;41944;52.078;-0.058;2023-04-26T03:07:55;101635.82;;;4.93;88.44
56070;BME280;41944;52.078;-0.058;2023-04-26T03:10:22;101633.21;;;4.82;88.58
56070;BME280;41944;52.078;-0.058;2023-04-26T03:12:49;101631.39;;;4.76;89.17
56070;BME280;41944;52.078;-0.058;2023-04-26T03:15:16;101630.38;;;4.76;88.65
56070;BME280;41944;52.078;-0.058;2023-04-26T03:17:44;101630.29;;;4.63;89.11
56070;BME280;41944;52.078;-0.058;2023-04-26T03:20:11;101631.51;;;4.66;89.20
56070;BME280;41944;52.078;-0.058;2023-04-26T03:22:38;101633.31;;;4.87;88.54
56070;BME280;41944;52.078;-0.058;2023-04-26T03:25:06;101635.10;;;4.81;88.17
56070;BME280;41944;52.078;-0.058;2023-04-26T03:27:33;101634.82;;;4.61;88.25
56070;BME280;41944;52.078;-0.058;2023-04-26T03:30:00;101637.16;;;4.33;90.19
56070;BME280;41944;52.078;-0.058;2023-04-26T03:32:27;101640.57;;;4.36;89.99
56070;BME280;41944;52.078;-0.058;2023-04-26T03:34:54;101639.74;;;4.47;89.30
56070;BME280;41944;52.078;-0.058;2023-04-26T03:37:21;101637.81;;;4.43;88.90
56070;BME280;41944;52.078;-0.058;2023-04-26T03:39:47;101632.81;;;4.35;89.24
56070;BME280;41944;52.078;-0.058;2023-04-26T03:42:14;101626.55;;;4.25;90.12
56070;BME280;41944;52.078;-0.058;2023-04-26T03:44:41;101624.57;;;4.47;89.19
56070;BME280;41944;52.078;-0.058;2023-04-26T03:47:08;101622.73;;;4.21;89.91
56070;BME280;41944;52.078;-0.058;2023-04-26T03:49:35;101621.16;;;4.27;89.16
56070;BME280;41944;52.078;-0.058;2023-04-26T03:52:02;101624.33;;;4.38;89.18
56070;BME280;41944;52.078;-0.058;2023-04-26T03:54:29;101624.06;;;4.40;88.94
56070;BME280;41944;52.078;-0.058;2023-04-26T03:56:56;101623.48;;;4.26;89.26
56070;BME280;41944;52.078;-0.058;2023-04-26T03:59:23;101627.16;;;4.23;89.50
56070;BME280;41944;52.078;-0.058;2023-04-26T04:01:50;101625.87;;;4.32;89.05
56070;BME280;41944;52.078;-0.058;2023-04-26T04:04:16;101623.72;;;4.36;89.27
56070;BME280;41944;52.078;-0.058;2023-04-26T04:06:44;101625.49;;;4.62;88.50
56070;BME280;41944;52.078;-0.058;2023-04-26T04:09:10;101625.46;;;4.52;88.66
56070;BME280;41944;52.078;-0.058;2023-04-26T04:11:37;101620.46;;;4.53;89.41
56070;BME280;41944;52.078;-0.058;2023-04-26T04:14:04;101618.64;;;4.74;88.67
56070;BME280;41944;52.078;-0.058;2023-04-26T04:16:31;101623.21;;;4.74;88.47
56070;BME280;41944;52.078;-0.058;2023-04-26T04:18:58;101626.12;;;4.71;88.30
56070;BME280;41944;52.078;-0.058;2023-04-26T04:21:24;101625.92;;;4.69;88.55
56070;BME280;41944;52.078;-0.058;2023-04-26T04:23:51;101621.92;;;4.64;89.31
56070;BME280;41944;52.078;-0.058;2023-04-26T04:26:18;101622.23;;;4.63;90.17
56070;BME280;41944;52.078;-0.058;2023-04-26T04:28:45;101623.95;;;4.80;90.15
56070;BME280;41944;52.078;-0.058;2023-04-26T04:31:12;101618.66;;;4.87;89.70
56070;BME280;41944;52.078;-0.058;2023-04-26T04:33:39;101617.53;;;4.82;89.86
56070;BME280;41944;52.078;-0.058;2023-04-26T04:36:07;101620.05;;;4.78;90.30
56070;BME280;41944;52.078;-0.058;2023-04-26T04:38:34;101616.27;;;5.08;89.21
56070;BME280;41944;52.078;-0.058;2023-04-26T04:41:01;101612.79;;;4.90;89.68
56070;BME280;41944;52.078;-0.058;2023-04-26T04:43:28;101609.92;;;5.07;89.47
56070;BME280;41944;52.078;-0.058;2023-04-26T04:45:55;101617.23;;;5.21;89.10
56070;BME280;41944;52.078;-0.058;2023-04-26T04:48:22;101619.11;;;5.38;87.90
56070;BME280;41944;52.078;-0.058;2023-04-26T04:50:49;101617.02;;;5.39;87.56
56070;BME280;41944;52.078;-0.058;2023-04-26T04:53:16;101618.66;;;5.37;87.67
56070;BME280;41944;52.078;-0.058;2023-04-26T04:55:43;101623.55;;;5.39;87.94
56070;BME280;41944;52.078;-0.058;2023-04-26T04:58:11;101625.21;;;5.20;88.93
56070;BME280;41944;52.078;-0.058;2023-04-26T05:00:37;101625.67;;;5.49;88.33
56070;BME280;41944;52.078;-0.058;2023-04-26T05:03:04;101622.09;;;5.30;88.79
56070;BME280;41944;52.078;-0.058;2023-04-26T05:05:31;101611.85;;;5.45;88.38
56070;BME280;41944;52.078;-0.058;2023-04-26T05:07:58;101608.14;;;5.42;88.93
56070;BME280;41944;52.078;-0.058;2023-04-26T05:10:25;101609.56;;;5.43;88.99
56070;BME280;41944;52.078;-0.058;2023-04-26T05:12:52;101611.06;;;5.67;87.81
56070;BME280;41944;52.078;-0.058;2023-04-26T05:15:19;101609.79;;;5.64;87.59
56070;BME280;41944;52.078;-0.058;2023-04-26T05:17:46;101609.77;;;5.64;87.78
56070;BME280;41944;52.078;-0.058;2023-04-26T05:20:13;101612.06;;;5.66;88.03
56070;BME280;41944;52.078;-0.058;2023-04-26T05:22:40;101613.82;;;5.83;87.38
56070;BME280;41944;52.078;-0.058;2023-04-26T05:25:08;101607.98;;;6.05;86.45
56070;BME280;41944;52.078;-0.058;2023-04-26T05:27:35;101606.89;;;6.10;85.82
56070;BME280;41944;52.078;-0.058;2023-04-26T05:30:04;101609.14;;;6.19;85.56
56070;BME280;41944;52.078;-0.058;2023-04-26T05:32:31;101604.91;;;6.15;85.28
56070;BME280;41944;52.078;-0.058;2023-04-26T05:34:57;101603.95;;;6.15;85.74
56070;BME280;41944;52.078;-0.058;2023-04-26T05:37:24;101609.26;;;6.29;84.88
56070;BME280;41944;52.078;-0.058;2023-04-26T05:39:51;101613.52;;;6.43;83.99
56070;BME280;41944;52.078;-0.058;2023-04-26T05:42:18;101618.64;;;6.56;83.38
56070;BME280;41944;52.078;-0.058;2023-04-26T05:44:46;101625.38;;;6.65;82.30
56070;BME280;41944;52.078;-0.058;2023-04-26T05:47:13;101630.66;;;6.47;83.13
56070;BME280;41944;52.078;-0.058;2023-04-26T05:49:40;101635.88;;;6.72;82.41
56070;BME280;41944;52.078;-0.058;2023-04-26T05:52:08;101637.89;;;6.90;81.91
56070;BME280;41944;52.078;-0.058;2023-04-26T05:54:35;101638.90;;;6.81;82.59
56070;BME280;41944;52.078;-0.058;2023-04-26T05:57:02;101641.69;;;6.95;81.93
56070;BME280;41944;52.078;-0.058;2023-04-26T05:59:29;101634.50;;;7.10;80.99
56070;BME280;41944;52.078;-0.058;2023-04-26T06:01:57;101634.75;;;7.06;81.46
56070;BME280;41944;52.078;-0.058;2023-04-26T06:04:24;101636.06;;;7.25;81.08
56070;BME280;41944;52.078;-0.058;2023-04-26T06:06:51;101634.57;;;7.40;80.29
56070;BME280;41944;52.078;-0.058;2023-04-26T06:09:17;101634.25;;;7.33;80.88
56070;BME280;41944;52.078;-0.058;2023-04-26T06:11:44;101636.64;;;7.28;81.47
56070;BME280;41944;52.078;-0.058;2023-04-26T06:14:12;101643.96;;;7.04;83.58
56070;BME280;41944;52.078;-0.058;2023-04-26T06:16:38;101647.62;;;7.24;82.88
56070;BME280;41944;52.078;-0.058;2023-04-26T06:19:05;101651.53;;;7.06;84.21
56070;BME280;41944;52.078;-0.058;2023-04-26T06:21:32;101652.30;;;7.11;83.68
56070;BME280;41944;52.078;-0.058;2023-04-26T06:23:59;101651.76;;;7.26;83.16
56070;BME280;41944;52.078;-0.058;2023-04-26T06:26:26;101651.24;;;7.56;81.97
56070;BME280;41944;52.078;-0.058;2023-04-26T06:28:53;101652.34;;;7.61;81.82
56070;BME280;41944;52.078;-0.058;2023-04-26T06:31:20;101651.00;;;7.70;81.33
56070;BME280;41944;52.078;-0.058;2023-04-26T06:33:47;101648.17;;;7.73;81.44
56070;BME280;41944;52.078;-0.058;2023-04-26T06:36:14;101650.56;;;7.93;80.28
56070;BME280;41944;52.078;-0.058;2023-04-26T06:38:41;101648.65;;;8.20;78.64
56070;BME280;41944;52.078;-0.058;2023-04-26T06:41:09;101641.44;;;8.16;77.89
56070;BME280;41944;52.078;-0.058;2023-04-26T06:43:36;101639.48;;;8.37;76.31
56070;BME280;41944;52.078;-0.058;2023-04-26T06:46:03;101638.28;;;8.35;76.76
56070;BME280;41944;52.078;-0.058;2023-04-26T06:48:30;101636.54;;;8.46;76.43
56070;BME280;41944;52.078;-0.058;2023-04-26T06:50:56;101632.98;;;8.57;76.81
56070;BME280;41944;52.078;-0.058;2023-04-26T06:53:23;101632.04;;;8.65;76.05
56070;BME280;41944;52.078;-0.058;2023-04-26T06:55:51;101634.47;;;8.78;75.38
56070;BME280;41944;52.078;-0.058;2023-04-26T06:58:17;101636.01;;;8.86;75.96
56070;BME280;41944;52.078;-0.058;2023-04-26T07:00:44;101638.40;;;8.98;75.42
56070;BME280;41944;52.078;-0.058;2023-04-26T07:03:11;101640.78;;;8.92;75.14
56070;BME280;41944;52.078;-0.058;2023-04-26T07:05:39;101646.66;;;8.93;75.52
56070;BME280;41944;52.078;-0.058;2023-04-26T07:08:06;101649.16;;;8.95;75.18
56070;BME280;41944;52.078;-0.058;2023-04-26T07:10:34;101644.48;;;9.11;73.27
56070;BME280;41944;52.078;-0.058;2023-04-26T07:13:01;101652.56;;;9.12;73.15
56070;BME280;41944;52.078;-0.058;2023-04-26T07:15:28;101651.63;;;9.31;73.05
56070;BME280;41944;52.078;-0.058;2023-04-26T07:17:55;101651.67;;;9.50;73.49
56070;BME280;41944;52.078;-0.058;2023-04-26T07:20:22;101650.84;;;9.57;73.59
56070;BME280;41944;52.078;-0.058;2023-04-26T07:22:49;101649.32;;;9.49;73.96
56070;BME280;41944;52.078;-0.058;2023-04-26T07:25:17;101650.80;;;9.65;71.30
56070;BME280;41944;52.078;-0.058;2023-04-26T07:27:44;101647.35;;;9.78;70.10
56070;BME280;41944;52.078;-0.058;2023-04-26T07:30:12;101645.53;;;9.92;70.80
56070;BME280;41944;52.078;-0.058;2023-04-26T07:32:39;101641.47;;;10.04;71.29
56070;BME280;41944;52.078;-0.058;2023-04-26T07:35:08;101638.31;;;10.05;69.76
56070;BME280;41944;52.078;-0.058;2023-04-26T07:37:35;101639.26;;;10.20;69.37
56070;BME280;41944;52.078;-0.058;2023-04-26T07:40:02;101633.63;;;10.36;68.22
56070;BME280;41944;52.078;-0.058;2023-04-26T07:42:30;101637.35;;;10.40;67.78
56070;BME280;41944;52.078;-0.058;2023-04-26T07:44:57;101637.61;;;10.70;66.19
56070;BME280;41944;52.078;-0.058;2023-04-26T07:47:23;101636.56;;;10.83;65.07
56070;BME280;41944;52.078;-0.058;2023-04-26T07:49:52;101638.84;;;10.91;64.62
56070;BME280;41944;52.078;-0.058;2023-04-26T07:52:19;101640.43;;;10.96;64.01
56070;BME280;41944;52.078;-0.058;2023-04-26T07:54:47;101640.33;;;10.98;62.43
56070;BME280;41944;52.078;-0.058;2023-04-26T07:57:14;101641.25;;;11.06;63.75
56070;BME280;41944;52.078;-0.058;2023-04-26T07:59:41;101639.78;;;11.19;63.65
56070;BME280;41944;52.078;-0.058;2023-04-26T08:02:07;101635.26;;;11.28;62.24
56070;BME280;41944;52.078;-0.058;2023-04-26T08:04:35;101627.78;;;11.33;59.99
56070;BME280;41944;52.078;-0.058;2023-04-26T08:07:02;101617.82;;;11.29;59.33
56070;BME280;41944;52.078;-0.058;2023-04-26T08:09:29;101617.29;;;11.28;59.45
56070;BME280;41944;52.078;-0.058;2023-04-26T08:11:56;101619.36;;;11.22;59.84
56070;BME280;41944;52.078;-0.058;2023-04-26T08:14:23;101618.05;;;11.22;60.02
56070;BME280;41944;52.078;-0.058;2023-04-26T08:16:50;101617.11;;;11.18;59.57
56070;BME280;41944;52.078;-0.058;2023-04-26T08:19:17;101614.27;;;11.20;59.87
56070;BME280;41944;52.078;-0.058;2023-04-26T08:21:45;101615.81;;;11.27;61.09
56070;BME280;41944;52.078;-0.058;2023-04-26T08:24:12;101611.28;;;11.32;60.64
56070;BME280;41944;52.078;-0.058;2023-04-26T08:26:39;101615.62;;;11.36;61.28
56070;BME280;41944;52.078;-0.058;2023-04-26T08:29:06;101618.41;;;11.48;60.86
56070;BME280;41944;52.078;-0.058;2023-04-26T08:31:33;101615.01;;;11.51;60.10
56070;BME280;41944;52.078;-0.058;2023-04-26T08:34:00;101615.94;;;11.64;59.75
56070;BME280;41944;52.078;-0.058;2023-04-26T08:36:27;101614.46;;;11.67;59.76
56070;BME280;41944;52.078;-0.058;2023-04-26T08:38:54;101613.85;;;11.72;58.51
56070;BME280;41944;52.078;-0.058;2023-04-26T08:41:22;101619.63;;;11.77;57.42
56070;BME280;41944;52.078;-0.058;2023-04-26T08:43:49;101621.88;;;11.79;56.61
56070;BME280;41944;52.078;-0.058;2023-04-26T08:46:18;101618.67;;;11.85;56.99
56070;BME280;41944;52.078;-0.058;2023-04-26T08:48:51;101621.04;;;11.99;57.61
56070;BME280;41944;52.078;-0.058;2023-04-26T08:51:21;101618.96;;;12.10;55.51
56070;BME280;41944;52.078;-0.058;2023-04-26T08:53:50;101619.49;;;12.12;56.87
56070;BME280;41944;52.078;-0.058;2023-04-26T08:56:21;101619.92;;;12.19;55.04
56070;BME280;41944;52.078;-0.058;2023-04-26T08:58:50;101622.73;;;12.29;55.60
56070;BME280;41944;52.078;-0.058;2023-04-26T09:01:18;101624.80;;;12.36;54.33
56070;BME280;41944;52.078;-0.058;2023-04-26T09:03:47;101625.68;;;12.30;53.66
56070;BME280;41944;52.078;-0.058;2023-04-26T09:06:14;101628.04;;;12.39;53.75
56070;BME280;41944;52.078;-0.058;2023-04-26T09:08:43;101628.05;;;12.43;52.93
56070;BME280;41944;52.078;-0.058;2023-04-26T09:11:10;101631.31;;;12.45;53.44
56070;BME280;41944;52.078;-0.058;2023-04-26T09:13:37;101636.42;;;12.48;52.74
56070;BME280;41944;52.078;-0.058;2023-04-26T09:16:04;101633.04;;;12.39;51.92
56070;BME280;41944;52.078;-0.058;2023-04-26T09:18:31;101636.65;;;12.45;52.99
56070;BME280;41944;52.078;-0.058;2023-04-26T09:21:04;101637.34;;;12.47;53.11
56070;BME280;41944;52.078;-0.058;2023-04-26T09:23:32;101640.25;;;12.49;51.22
56070;BME280;41944;52.078;-0.058;2023-04-26T09:26:16;101639.46;;;12.51;51.43
56070;BME280;41944;52.078;-0.058;2023-04-26T09:28:43;101640.77;;;12.46;51.39
56070;BME280;41944;52.078;-0.058;2023-04-26T09:31:10;101641.47;;;12.52;52.37
56070;BME280;41944;52.078;-0.058;2023-04-26T09:33:56;101641.01;;;12.68;50.65
56070;BME280;41944;52.078;-0.058;2023-04-26T09:36:23;101644.76;;;12.93;51.19
56070;BME280;41944;52.078;-0.058;2023-04-26T09:38:50;101639.90;;;13.04;50.18
56070;BME280;41944;52.078;-0.058;2023-04-26T09:41:17;101632.12;;;13.11;49.36
56070;BME280;41944;52.078;-0.058;2023-04-26T09:43:44;101632.31;;;13.27;50.06
56070;BME280;41944;52.078;-0.058;2023-04-26T09:46:21;101632.32;;;13.39;49.28
56070;BME280;41944;52.078;-0.058;2023-04-26T09:48:59;101629.18;;;13.48;48.44
56070;BME280;41944;52.078;-0.058;2023-04-26T09:51:27;101624.43;;;13.61;48.51
56070;BME280;41944;52.078;-0.058;2023-04-26T09:53:54;101627.50;;;13.59;47.50
56070;BME280;41944;52.078;-0.058;2023-04-26T09:56:21;101622.71;;;13.70;48.36
56070;BME280;41944;52.078;-0.058;2023-04-26T09:58:56;101624.42;;;13.67;48.05
56070;BME280;41944;52.078;-0.058;2023-04-26T10:01:25;101625.20;;;13.71;48.29
56070;BME280;41944;52.078;-0.058;2023-04-26T10:03:54;101624.51;;;13.85;48.57
56070;BME280;41944;52.078;-0.058;2023-04-26T10:06:22;101626.87;;;13.95;48.83
56070;BME280;41944;52.078;-0.058;2023-04-26T10:08:49;101621.49;;;14.05;48.29
56070;BME280;41944;52.078;-0.058;2023-04-26T10:11:17;101621.34;;;14.09;49.17
56070;BME280;41944;52.078;-0.058;2023-04-26T10:13:44;101616.72;;;14.37;47.39
56070;BME280;41944;52.078;-0.058;2023-04-26T10:16:11;101613.09;;;14.45;46.70
56070;BME280;41944;52.078;-0.058;2023-04-26T10:18:38;101611.24;;;14.47;45.45
56070;BME280;41944;52.078;-0.058;2023-04-26T10:21:09;101611.00;;;14.56;45.19
56070;BME280;41944;52.078;-0.058;2023-04-26T10:23:37;101609.07;;;14.66;46.13
56070;BME280;41944;52.078;-0.058;2023-04-26T10:26:05;101608.74;;;14.68;44.75
56070;BME280;41944;52.078;-0.058;2023-04-26T10:29:04;101609.46;;;14.75;45.43
56070;BME280;41944;52.078;-0.058;2023-04-26T10:34:17;101603.54;;;14.80;45.96
56070;BME280;41944;52.078;-0.058;2023-04-26T10:37:17;101598.07;;;14.81;45.06
56070;BME280;41944;52.078;-0.058;2023-04-26T10:39:45;101594.28;;;14.77;45.71
56070;BME280;41944;52.078;-0.058;2023-04-26T10:42:22;101593.75;;;14.73;45.75
56070;BME280;41944;52.078;-0.058;2023-04-26T10:44:50;101592.27;;;14.82;44.66
56070;BME280;41944;52.078;-0.058;2023-04-26T10:47:24;101589.69;;;14.92;45.10
56070;BME280;41944;52.078;-0.058;2023-04-26T10:49:51;101584.96;;;14.94;45.74
56070;BME280;41944;52.078;-0.058;2023-04-26T10:52:19;101581.54;;;14.92;44.50
56070;BME280;41944;52.078;-0.058;2023-04-26T10:54:48;101581.18;;;15.08;43.46
56070;BME280;41944;52.078;-0.058;2023-04-26T10:57:15;101580.64;;;15.24;44.66
56070;BME280;41944;52.078;-0.058;2023-04-26T11:00:17;101575.83;;;15.11;44.14
56070;BME280;41944;52.078;-0.058;2023-04-26T11:02:55;101572.51;;;14.85;45.48
56070;BME280;41944;52.078;-0.058;2023-04-26T11:05:41;101571.25;;;14.84;45.83
56070;BME280;41944;52.078;-0.058;2023-04-26T11:08:15;101574.60;;;14.97;45.90
56070;BME280;41944;52.078;-0.058;2023-04-26T11:10:48;101573.12;;;14.99;44.75
56070;BME280;41944;52.078;-0.058;2023-04-26T11:13:16;101568.79;;;14.94;43.99
56070;BME280;41944;52.078;-0.058;2023-04-26T11:15:43;101568.16;;;14.82;45.28
56070;BME280;41944;52.078;-0.058;2023-04-26T11:18:10;101570.65;;;14.59;44.84
56070;BME280;41944;52.078;-0.058;2023-04-26T11:20:37;101566.79;;;14.55;45.63
56070;BME280;41944;52.078;-0.058;2023-04-26T11:23:07;101566.73;;;14.45;44.25
56070;BME280;41944;52.078;-0.058;2023-04-26T11:25:34;101567.36;;;14.42;44.59
56070;BME280;41944;52.078;-0.058;2023-04-26T11:28:02;101563.81;;;14.49;45.09
56070;BME280;41944;52.078;-0.058;2023-04-26T11:30:30;101566.65;;;14.51;44.87
56070;BME280;41944;52.078;-0.058;2023-04-26T11:32:58;101562.67;;;14.56;45.82
56070;BME280;41944;52.078;-0.058;2023-04-26T11:35:25;101560.99;;;14.47;45.92
56070;BME280;41944;52.078;-0.058;2023-04-26T11:37:52;101560.53;;;14.53;45.33
56070;BME280;41944;52.078;-0.058;2023-04-26T11:40:20;101557.12;;;14.46;44.48
56070;BME280;41944;52.078;-0.058;2023-04-26T11:42:47;101557.70;;;14.42;44.08
56070;BME280;41944;52.078;-0.058;2023-04-26T11:45:15;101553.48;;;14.45;43.12
56070;BME280;41944;52.078;-0.058;2023-04-26T11:47:43;101553.47;;;14.41;42.45
56070;BME280;41944;52.078;-0.058;2023-04-26T11:50:10;101554.55;;;14.43;42.69
56070;BME280;41944;52.078;-0.058;2023-04-26T11:52:38;101556.06;;;14.57;43.65
56070;BME280;41944;52.078;-0.058;2023-04-26T11:55:07;101551.22;;;14.66;43.64
56070;BME280;41944;52.078;-0.058;2023-04-26T11:57:34;101547.18;;;14.77;41.90
56070;BME280;41944;52.078;-0.058;2023-04-26T12:00:10;101549.26;;;14.79;41.96
56070;BME280;41944;52.078;-0.058;2023-04-26T12:02:38;101547.39;;;14.89;42.67
56070;BME280;41944;52.078;-0.058;2023-04-26T12:05:06;101546.78;;;14.80;41.74
56070;BME280;41944;52.078;-0.058;2023-04-26T12:07:34;101544.38;;;14.73;41.81
56070;BME280;41944;52.078;-0.058;2023-04-26T12:10:13;101542.53;;;14.69;40.94
56070;BME280;41944;52.078;-0.058;2023-04-26T12:12:44;101544.08;;;14.66;42.04
56070;BME280;41944;52.078;-0.058;2023-04-26T12:15:13;101543.89;;;14.71;41.50
56070;BME280;41944;52.078;-0.058;2023-04-26T12:17:51;101541.60;;;14.77;41.76
56070;BME280;41944;52.078;-0.058;2023-04-26T12:20:25;101541.52;;;14.89;42.19
56070;BME280;41944;52.078;-0.058;2023-04-26T12:22:58;101541.21;;;14.93;40.83
56070;BME280;41944;52.078;-0.058;2023-04-26T12:25:26;101537.78;;;14.99;41.04
56070;BME280;41944;52.078;-0.058;2023-04-26T12:27:53;101541.37;;;15.03;42.25
56070;BME280;41944;52.078;-0.058;2023-04-26T12:30:20;101542.90;;;14.92;41.91
56070;BME280;41944;52.078;-0.058;2023-04-26T12:32:47;101545.59;;;14.82;42.66
56070;BME280;41944;52.078;-0.058;2023-04-26T12:35:14;101547.46;;;14.76;42.22
56070;BME280;41944;52.078;-0.058;2023-04-26T12:37:42;101545.11;;;14.57;42.63
56070;BME280;41944;52.078;-0.058;2023-04-26T12:40:10;101546.56;;;14.52;44.84
56070;BME280;41944;52.078;-0.058;2023-04-26T12:42:38;101554.89;;;14.11;53.38
56070;BME280;41944;52.078;-0.058;2023-04-26T12:45:06;101553.07;;;13.66;53.65
56070;BME280;41944;52.078;-0.058;2023-04-26T12:47:33;101553.03;;;13.59;53.79
56070;BME280;41944;52.078;-0.058;2023-04-26T12:50:01;101552.63;;;13.26;52.83
56070;BME280;41944;52.078;-0.058;2023-04-26T12:52:29;101555.91;;;13.23;51.89